createdAt,value
2022-12-27T00:00:54.708Z,1018.77
2022-12-27T00:01:54.644Z,1018.86
2022-12-27T00:02:54.639Z,1018.81
2022-12-27T00:03:54.588Z,1018.82
2022-12-27T00:04:54.621Z,1018.84
2022-12-27T00:05:54.596Z,1018.87
2022-12-27T00:06:54.596Z,1018.85
2022-12-27T00:07:54.584Z,1018.89
2022-12-27T00:08:54.580Z,1018.86
2022-12-27T00:09:54.574Z,1018.86
2022-12-27T00:10:54.564Z,1018.89
2022-12-27T00:11:59.792Z,1018.90
2022-12-27T00:12:54.551Z,1018.93
2022-12-27T00:13:54.559Z,1018.92
2022-12-27T00:14:54.562Z,1018.95
2022-12-27T00:15:54.534Z,1018.95
2022-12-27T00:16:54.554Z,1018.96
2022-12-27T00:17:54.527Z,1019.01
2022-12-27T00:18:54.535Z,1019.01
2022-12-27T00:19:54.512Z,1019.03
2022-12-27T00:20:54.539Z,1019.04
2022-12-27T00:21:54.513Z,1019.04
2022-12-27T00:22:54.529Z,1019.05
2022-12-27T00:23:54.492Z,1019.06
2022-12-27T00:24:54.512Z,1019.06
2022-12-27T00:25:54.488Z,1019.02
2022-12-27T00:26:54.497Z,1019.07
2022-12-27T00:27:54.493Z,1019.06
2022-12-27T00:28:54.476Z,1019.10
2022-12-27T00:29:54.479Z,1019.05
2022-12-27T00:30:54.481Z,1019.04
2022-12-27T00:31:54.510Z,1019.05
2022-12-27T00:32:54.476Z,1019.02
2022-12-27T00:33:54.468Z,1019.04
2022-12-27T00:34:54.457Z,1019.09
2022-12-27T00:35:54.444Z,1019.05
2022-12-27T00:36:54.467Z,1019.04
2022-12-27T00:37:54.455Z,1019.09
2022-12-27T00:38:54.445Z,1019.03
2022-12-27T00:39:54.445Z,1019.02
2022-12-27T00:40:54.439Z,1019.01
2022-12-27T00:41:54.429Z,1018.98
2022-12-27T00:42:54.431Z,1019.01
2022-12-27T00:43:54.422Z,1018.98
2022-12-27T00:44:54.407Z,1018.98
2022-12-27T00:45:54.416Z,1018.97
2022-12-27T00:46:54.415Z,1018.98
2022-12-27T00:47:54.394Z,1018.96
2022-12-27T00:48:54.388Z,1018.97
2022-12-27T00:49:54.376Z,1018.98
2022-12-27T00:50:54.394Z,1018.99
2022-12-27T00:51:54.387Z,1019.02
2022-12-27T00:52:54.401Z,1019.04
2022-12-27T00:53:54.374Z,1019.03
2022-12-27T00:54:54.375Z,1019.04
2022-12-27T00:55:54.366Z,1019.04
2022-12-27T00:56:54.357Z,1018.99
2022-12-27T00:57:54.360Z,1019.02
2022-12-27T00:58:54.347Z,1019.02
2022-12-27T00:59:54.335Z,1019.05
2022-12-27T01:00:54.401Z,1019.00
2022-12-27T01:01:54.558Z,1019.01
2022-12-27T01:02:54.339Z,1019.05
2022-12-27T01:03:54.374Z,1019.07
2022-12-27T01:04:54.336Z,1019.03
2022-12-27T01:05:54.312Z,1019.04
2022-12-27T01:06:54.308Z,1019.01
2022-12-27T01:07:54.296Z,1019.04
2022-12-27T01:08:54.333Z,1019.05
2022-12-27T01:09:54.290Z,1019.06
2022-12-27T01:10:54.313Z,1019.05
2022-12-27T01:11:54.281Z,1019.07
2022-12-27T01:12:54.292Z,1019.06
2022-12-27T01:13:54.274Z,1019.05
2022-12-27T01:14:54.291Z,1019.06
2022-12-27T01:15:54.265Z,1019.08
2022-12-27T01:16:54.272Z,1019.05
2022-12-27T01:17:54.256Z,1019.06
2022-12-27T01:18:54.275Z,1019.09
2022-12-27T01:19:54.261Z,1019.06
2022-12-27T01:20:54.252Z,1019.10
2022-12-27T01:21:54.241Z,1019.10
2022-12-27T01:22:54.241Z,1019.08
2022-12-27T01:23:54.230Z,1019.10
2022-12-27T01:24:54.267Z,1019.11
2022-12-27T01:25:54.227Z,1019.08
2022-12-27T01:26:54.225Z,1019.13
2022-12-27T01:27:54.212Z,1019.13
2022-12-27T01:28:54.251Z,1019.14
2022-12-27T01:29:54.212Z,1019.13
2022-12-27T01:30:54.210Z,1019.16
2022-12-27T01:31:54.221Z,1019.13
2022-12-27T01:32:54.216Z,1019.19
2022-12-27T01:33:54.184Z,1019.17
2022-12-27T01:34:54.203Z,1019.20
2022-12-27T01:35:54.169Z,1019.20
2022-12-27T01:36:54.183Z,1019.19
2022-12-27T01:37:54.160Z,1019.15
2022-12-27T01:38:54.185Z,1019.17
2022-12-27T01:39:54.156Z,1019.13
2022-12-27T01:40:54.250Z,1019.13
2022-12-27T01:41:54.155Z,1019.19
2022-12-27T01:42:54.141Z,1019.18
2022-12-27T01:43:54.150Z,1019.21
2022-12-27T01:44:54.143Z,1019.16
2022-12-27T01:45:54.185Z,1019.20
2022-12-27T01:46:54.126Z,1019.22
2022-12-27T01:47:54.113Z,1019.23
2022-12-27T01:48:54.112Z,1019.25
2022-12-27T01:49:54.110Z,1019.26
2022-12-27T01:50:54.125Z,1019.26
2022-12-27T01:51:54.124Z,1019.30
2022-12-27T01:52:54.109Z,1019.32
2022-12-27T01:53:54.090Z,1019.29
2022-12-27T01:54:54.100Z,1019.31
2022-12-27T01:55:54.096Z,1019.32
2022-12-27T01:56:54.101Z,1019.34
2022-12-27T01:57:54.072Z,1019.37
2022-12-27T01:58:54.085Z,1019.39
2022-12-27T01:59:54.068Z,1019.38
2022-12-27T02:00:54.132Z,1019.41
2022-12-27T02:01:54.221Z,1019.39
2022-12-27T02:02:54.083Z,1019.45
2022-12-27T02:03:54.043Z,1019.41
2022-12-27T02:04:54.085Z,1019.42
2022-12-27T02:05:54.044Z,1019.43
2022-12-27T02:06:54.038Z,1019.46
2022-12-27T02:07:54.023Z,1019.49
2022-12-27T02:08:54.030Z,1019.46
2022-12-27T02:09:54.013Z,1019.47
2022-12-27T02:10:54.029Z,1019.49
2022-12-27T02:11:54.011Z,1019.47
2022-12-27T02:12:54.052Z,1019.43
2022-12-27T02:13:53.994Z,1019.51
2022-12-27T02:14:53.997Z,1019.50
2022-12-27T02:15:53.990Z,1019.49
2022-12-27T02:16:54.060Z,1019.50
2022-12-27T02:17:54.008Z,1019.50
2022-12-27T02:18:53.976Z,1019.53
2022-12-27T02:19:53.964Z,1019.50
2022-12-27T02:20:53.966Z,1019.52
2022-12-27T02:21:53.959Z,1019.48
2022-12-27T02:22:53.970Z,1019.51
2022-12-27T02:23:53.958Z,1019.51
2022-12-27T02:24:53.948Z,1019.48
2022-12-27T02:25:53.953Z,1019.44
2022-12-27T02:26:53.948Z,1019.47
2022-12-27T02:27:53.963Z,1019.41
2022-12-27T02:28:53.961Z,1019.40
2022-12-27T02:29:53.932Z,1019.40
2022-12-27T02:30:53.963Z,1019.39
2022-12-27T02:31:53.923Z,1019.35
2022-12-27T02:32:53.921Z,1019.38
2022-12-27T02:33:53.905Z,1019.38
2022-12-27T02:34:53.918Z,1019.37
2022-12-27T02:35:53.903Z,1019.38
2022-12-27T02:36:53.903Z,1019.40
2022-12-27T02:37:53.890Z,1019.49
2022-12-27T02:38:53.888Z,1019.45
2022-12-27T02:39:53.874Z,1019.47
2022-12-27T02:40:53.884Z,1019.48
2022-12-27T02:41:53.869Z,1019.48
2022-12-27T02:42:53.877Z,1019.50
2022-12-27T02:43:53.871Z,1019.52
2022-12-27T02:44:53.899Z,1019.49
2022-12-27T02:45:53.874Z,1019.49
2022-12-27T02:46:53.861Z,1019.49
2022-12-27T02:47:53.851Z,1019.50
2022-12-27T02:48:53.841Z,1019.47
2022-12-27T02:49:53.828Z,1019.50
2022-12-27T02:50:53.833Z,1019.48
2022-12-27T02:51:53.836Z,1019.47
2022-12-27T02:52:53.815Z,1019.50
2022-12-27T02:53:53.805Z,1019.46
2022-12-27T02:54:53.820Z,1019.52
2022-12-27T02:55:53.799Z,1019.50
2022-12-27T02:56:53.813Z,1019.56
2022-12-27T02:57:53.795Z,1019.51
2022-12-27T02:58:53.811Z,1019.53
2022-12-27T02:59:53.789Z,1019.58
2022-12-27T03:00:53.806Z,1019.58
2022-12-27T03:01:53.967Z,1019.59
2022-12-27T03:02:53.838Z,1019.56
2022-12-27T03:03:53.759Z,1019.58
2022-12-27T03:04:53.770Z,1019.58
2022-12-27T03:05:53.759Z,1019.63
2022-12-27T03:06:53.762Z,1019.64
2022-12-27T03:07:53.743Z,1019.61
2022-12-27T03:08:53.774Z,1019.54
2022-12-27T03:09:53.745Z,1019.56
2022-12-27T03:10:53.747Z,1019.62
2022-12-27T03:11:53.735Z,1019.60
2022-12-27T03:12:53.736Z,1019.60
2022-12-27T03:13:53.727Z,1019.62
2022-12-27T03:14:53.733Z,1019.63
2022-12-27T03:15:53.741Z,1019.61
2022-12-27T03:16:53.798Z,1019.60
2022-12-27T03:17:53.713Z,1019.60
2022-12-27T03:18:53.712Z,1019.63
2022-12-27T03:19:53.685Z,1019.56
2022-12-27T03:20:53.696Z,1019.61
2022-12-27T03:21:53.675Z,1019.59
2022-12-27T03:22:53.686Z,1019.59
2022-12-27T03:23:53.676Z,1019.63
2022-12-27T03:24:53.685Z,1019.64
2022-12-27T03:25:53.655Z,1019.64
2022-12-27T03:26:53.670Z,1019.68
2022-12-27T03:27:53.658Z,1019.63
2022-12-27T03:28:53.668Z,1019.67
2022-12-27T03:29:53.649Z,1019.68
2022-12-27T03:30:53.714Z,1019.67
2022-12-27T03:31:53.641Z,1019.65
2022-12-27T03:32:53.653Z,1019.68
2022-12-27T03:33:53.619Z,1019.66
2022-12-27T03:34:53.622Z,1019.68
2022-12-27T03:35:53.622Z,1019.68
2022-12-27T03:36:53.632Z,1019.69
2022-12-27T03:37:53.607Z,1019.72
2022-12-27T03:38:53.609Z,1019.71
2022-12-27T03:39:53.608Z,1019.71
2022-12-27T03:40:53.597Z,1019.72
2022-12-27T03:41:53.625Z,1019.79
2022-12-27T03:42:53.598Z,1019.77
2022-12-27T03:43:53.570Z,1019.76
2022-12-27T03:44:53.587Z,1019.76
2022-12-27T03:45:53.583Z,1019.77
2022-12-27T03:46:53.566Z,1019.76
2022-12-27T03:47:53.568Z,1019.80
2022-12-27T03:48:53.588Z,1019.83
2022-12-27T03:49:53.571Z,1019.80
2022-12-27T03:50:53.545Z,1019.80
2022-12-27T03:51:53.533Z,1019.80
2022-12-27T03:52:53.551Z,1019.86
2022-12-27T03:53:53.538Z,1019.84
2022-12-27T03:54:53.541Z,1019.83
2022-12-27T03:55:53.527Z,1019.87
2022-12-27T03:56:53.518Z,1019.86
2022-12-27T03:57:53.518Z,1019.87
2022-12-27T03:58:53.512Z,1019.93
2022-12-27T03:59:53.514Z,1019.94
2022-12-27T04:00:53.497Z,1019.92
2022-12-27T04:01:53.578Z,1019.92
2022-12-27T04:02:53.594Z,1019.94
2022-12-27T04:03:53.494Z,1019.96
2022-12-27T04:04:53.514Z,1019.90
2022-12-27T04:05:53.484Z,1019.91
2022-12-27T04:06:53.468Z,1019.90
2022-12-27T04:07:53.466Z,1019.91
2022-12-27T04:08:53.455Z,1019.95
2022-12-27T04:09:53.470Z,1019.91
2022-12-27T04:10:53.449Z,1019.97
2022-12-27T04:11:53.447Z,1019.90
2022-12-27T04:12:53.450Z,1019.93
2022-12-27T04:13:53.450Z,1019.89
2022-12-27T04:14:53.437Z,1019.93
2022-12-27T04:15:53.493Z,1019.86
2022-12-27T04:16:53.420Z,1019.85
2022-12-27T04:17:53.420Z,1019.87
2022-12-27T04:18:53.423Z,1019.88
2022-12-27T04:19:53.406Z,1019.83
2022-12-27T04:20:53.443Z,1019.85
2022-12-27T04:21:53.405Z,1019.91
2022-12-27T04:22:53.403Z,1019.90
2022-12-27T04:23:53.401Z,1019.90
2022-12-27T04:24:53.390Z,1019.83
2022-12-27T04:25:53.390Z,1019.84
2022-12-27T04:26:53.376Z,1019.80
2022-12-27T04:27:53.386Z,1019.85
2022-12-27T04:28:53.493Z,1019.89
2022-12-27T04:29:53.372Z,1019.91
2022-12-27T04:30:53.406Z,1019.87
2022-12-27T04:31:53.367Z,1019.87
2022-12-27T04:32:53.358Z,1019.88
2022-12-27T04:33:53.469Z,1019.87
2022-12-27T04:34:53.331Z,1019.84
2022-12-27T04:35:53.348Z,1019.85
2022-12-27T04:36:53.341Z,1019.81
2022-12-27T04:37:53.318Z,1019.79
2022-12-27T04:38:53.328Z,1019.82
2022-12-27T04:39:53.321Z,1019.85
2022-12-27T04:40:53.307Z,1019.84
2022-12-27T04:41:53.312Z,1019.84
2022-12-27T04:42:53.299Z,1019.89
2022-12-27T04:43:53.400Z,1019.87
2022-12-27T04:44:53.301Z,1019.85
2022-12-27T04:45:53.317Z,1019.86
2022-12-27T04:46:53.339Z,1019.85
2022-12-27T04:47:53.282Z,1019.81
2022-12-27T04:48:53.273Z,1019.82
2022-12-27T04:49:53.266Z,1019.80
2022-12-27T04:50:53.256Z,1019.82
2022-12-27T04:51:53.271Z,1019.77
2022-12-27T04:52:53.281Z,1019.75
2022-12-27T04:53:53.261Z,1019.79
2022-12-27T04:54:53.260Z,1019.81
2022-12-27T04:55:53.248Z,1019.85
2022-12-27T04:56:53.231Z,1019.86
2022-12-27T04:57:53.241Z,1019.90
2022-12-27T04:58:53.257Z,1019.89
2022-12-27T04:59:53.230Z,1019.92
2022-12-27T05:00:53.221Z,1019.93
2022-12-27T05:01:53.296Z,1019.92
2022-12-27T05:02:53.449Z,1019.97
2022-12-27T05:03:53.211Z,1019.93
2022-12-27T05:04:53.192Z,1019.97
2022-12-27T05:05:53.213Z,1020.00
2022-12-27T05:06:53.199Z,1019.98
2022-12-27T05:07:53.198Z,1020.00
2022-12-27T05:08:53.190Z,1019.98
2022-12-27T05:09:53.168Z,1020.05
2022-12-27T05:10:53.188Z,1020.04
2022-12-27T05:11:53.194Z,1019.99
2022-12-27T05:12:53.174Z,1020.03
2022-12-27T05:13:53.154Z,1020.01
2022-12-27T05:14:53.165Z,1020.05
2022-12-27T05:15:53.189Z,1020.08
2022-12-27T05:16:53.152Z,1020.11
2022-12-27T05:17:53.142Z,1020.09
2022-12-27T05:18:53.140Z,1020.12
2022-12-27T05:19:53.132Z,1020.14
2022-12-27T05:20:53.126Z,1020.12
2022-12-27T05:21:53.116Z,1020.08
2022-12-27T05:22:53.111Z,1020.09
2022-12-27T05:23:53.121Z,1020.09
2022-12-27T05:24:53.138Z,1020.09
2022-12-27T05:25:53.131Z,1020.12
2022-12-27T05:26:53.088Z,1020.15
2022-12-27T05:27:53.103Z,1020.14
2022-12-27T05:28:53.085Z,1020.13
2022-12-27T05:29:53.075Z,1020.15
2022-12-27T05:30:53.084Z,1020.16
2022-12-27T05:31:53.084Z,1020.16
2022-12-27T05:32:53.077Z,1020.16
2022-12-27T05:33:53.082Z,1020.18
2022-12-27T05:34:53.072Z,1020.21
2022-12-27T05:35:53.062Z,1020.19
2022-12-27T05:36:53.051Z,1020.19
2022-12-27T05:37:55.022Z,1020.23
2022-12-27T05:38:53.031Z,1020.24
2022-12-27T05:39:53.034Z,1020.24
2022-12-27T05:40:53.052Z,1020.21
2022-12-27T05:41:53.043Z,1020.26
2022-12-27T05:42:53.026Z,1020.23
2022-12-27T05:43:53.070Z,1020.26
2022-12-27T05:44:53.022Z,1020.30
2022-12-27T05:45:53.014Z,1020.29
2022-12-27T05:46:53.025Z,1020.27
2022-12-27T05:47:53.012Z,1020.31
2022-12-27T05:48:52.988Z,1020.30
2022-12-27T05:49:52.997Z,1020.34
2022-12-27T05:50:53.000Z,1020.29
2022-12-27T05:51:52.992Z,1020.31
2022-12-27T05:52:52.969Z,1020.31
2022-12-27T05:53:52.980Z,1020.32
2022-12-27T05:54:52.963Z,1020.34
2022-12-27T05:55:52.975Z,1020.35
2022-12-27T05:56:52.978Z,1020.33
2022-12-27T05:57:52.957Z,1020.32
2022-12-27T05:58:52.952Z,1020.38
2022-12-27T05:59:52.959Z,1020.33
2022-12-27T06:00:52.929Z,1020.37
2022-12-27T06:01:53.104Z,1020.42
2022-12-27T06:02:53.056Z,1020.39
2022-12-27T06:03:52.939Z,1020.47
2022-12-27T06:04:52.919Z,1020.50
2022-12-27T06:05:52.924Z,1020.46
2022-12-27T06:06:52.913Z,1020.51
2022-12-27T06:07:52.927Z,1020.50
2022-12-27T06:08:52.900Z,1020.53
2022-12-27T06:09:52.911Z,1020.53
2022-12-27T06:10:52.901Z,1020.57
2022-12-27T06:11:52.894Z,1020.52
2022-12-27T06:12:52.905Z,1020.53
2022-12-27T06:13:52.903Z,1020.55
2022-12-27T06:14:52.879Z,1020.59
2022-12-27T06:15:52.873Z,1020.54
2022-12-27T06:16:52.949Z,1020.57
2022-12-27T06:17:52.878Z,1020.57
2022-12-27T06:18:52.853Z,1020.48
2022-12-27T06:19:57.000Z,1020.51
2022-12-27T06:20:52.840Z,1020.53
2022-12-27T06:21:52.853Z,1020.56
2022-12-27T06:22:52.843Z,1020.56
2022-12-27T06:23:52.838Z,1020.57
2022-12-27T06:24:52.834Z,1020.62
2022-12-27T06:25:52.838Z,1020.62
2022-12-27T06:26:52.820Z,1020.62
2022-12-27T06:27:52.805Z,1020.64
2022-12-27T06:28:52.839Z,1020.62
2022-12-27T06:29:52.817Z,1020.63
2022-12-27T06:30:52.803Z,1020.62
2022-12-27T06:31:52.855Z,1020.61
2022-12-27T06:32:52.792Z,1020.58
2022-12-27T06:33:52.799Z,1020.65
2022-12-27T06:34:52.770Z,1020.62
2022-12-27T06:35:52.787Z,1020.68
2022-12-27T06:36:52.781Z,1020.71
2022-12-27T06:37:52.758Z,1020.76
2022-12-27T06:38:52.753Z,1020.77
2022-12-27T06:39:52.748Z,1020.78
2022-12-27T06:40:52.750Z,1020.78
2022-12-27T06:41:52.747Z,1020.78
2022-12-27T06:42:52.734Z,1020.79
2022-12-27T06:43:52.754Z,1020.81
2022-12-27T06:44:52.748Z,1020.77
2022-12-27T06:45:52.769Z,1020.78
2022-12-27T06:46:52.728Z,1020.75
2022-12-27T06:47:52.725Z,1020.75
2022-12-27T06:48:52.739Z,1020.73
2022-12-27T06:49:52.714Z,1020.74
2022-12-27T06:50:52.734Z,1020.71
2022-12-27T06:51:59.083Z,1020.72
2022-12-27T06:52:52.700Z,1020.70
2022-12-27T06:53:52.723Z,1020.74
2022-12-27T06:54:52.693Z,1020.70
2022-12-27T06:55:52.698Z,1020.67
2022-12-27T06:56:52.680Z,1020.67
2022-12-27T06:57:52.683Z,1020.73
2022-12-27T06:58:52.668Z,1020.69
2022-12-27T06:59:54.279Z,1020.74
2022-12-27T07:00:52.691Z,1020.67
2022-12-27T07:01:52.866Z,1020.72
2022-12-27T07:02:52.797Z,1020.71
2022-12-27T07:03:52.640Z,1020.73
2022-12-27T07:04:52.657Z,1020.72
2022-12-27T07:05:52.645Z,1020.81
2022-12-27T07:06:52.625Z,1020.82
2022-12-27T07:07:52.620Z,1020.82
2022-12-27T07:08:52.615Z,1020.89
2022-12-27T07:09:52.614Z,1020.89
2022-12-27T07:10:52.621Z,1020.88
2022-12-27T07:11:52.612Z,1020.94
2022-12-27T07:12:52.596Z,1020.98
2022-12-27T07:13:52.621Z,1020.94
2022-12-27T07:14:52.591Z,1020.95
2022-12-27T07:15:52.601Z,1020.99
2022-12-27T07:16:52.679Z,1020.98
2022-12-27T07:17:52.594Z,1020.98
2022-12-27T07:18:52.568Z,1021.03
2022-12-27T07:19:52.565Z,1021.03
2022-12-27T07:20:52.572Z,1021.02
2022-12-27T07:21:52.575Z,1021.06
2022-12-27T07:22:52.560Z,1021.02
2022-12-27T07:23:52.564Z,1021.07
2022-12-27T07:24:52.534Z,1021.10
2022-12-27T07:25:52.556Z,1021.14
2022-12-27T07:26:52.535Z,1021.11
2022-12-27T07:27:52.544Z,1021.15
2022-12-27T07:28:52.518Z,1021.10
2022-12-27T07:29:52.533Z,1021.10
2022-12-27T07:30:52.531Z,1021.18
2022-12-27T07:31:52.557Z,1021.15
2022-12-27T07:32:52.534Z,1021.17
2022-12-27T07:33:52.535Z,1021.15
2022-12-27T07:34:52.516Z,1021.19
2022-12-27T07:35:52.505Z,1021.20
2022-12-27T07:36:52.517Z,1021.23
2022-12-27T07:37:52.501Z,1021.21
2022-12-27T07:38:52.486Z,1021.24
2022-12-27T07:39:52.485Z,1021.27
2022-12-27T07:40:52.481Z,1021.28
2022-12-27T07:41:52.476Z,1021.30
2022-12-27T07:42:52.467Z,1021.27
2022-12-27T07:43:52.463Z,1021.29
2022-12-27T07:44:52.458Z,1021.32
2022-12-27T07:45:52.476Z,1021.28
2022-12-27T07:46:52.460Z,1021.35
2022-12-27T07:47:52.450Z,1021.38
2022-12-27T07:48:52.449Z,1021.36
2022-12-27T07:49:52.425Z,1021.35
2022-12-27T07:50:52.429Z,1021.39
2022-12-27T07:51:52.431Z,1021.37
2022-12-27T07:52:52.409Z,1021.40
2022-12-27T07:53:52.460Z,1021.40
2022-12-27T07:54:52.406Z,1021.42
2022-12-27T07:55:52.399Z,1021.44
2022-12-27T07:56:52.392Z,1021.46
2022-12-27T07:57:52.387Z,1021.46
2022-12-27T07:58:52.380Z,1021.51
2022-12-27T07:59:52.414Z,1021.49
2022-12-27T08:00:52.392Z,1021.44
2022-12-27T08:01:52.413Z,1021.44
2022-12-27T08:02:52.471Z,1021.47
2022-12-27T08:03:52.376Z,1021.50
2022-12-27T08:04:52.373Z,1021.51
2022-12-27T08:05:52.374Z,1021.51
2022-12-27T08:06:52.359Z,1021.55
2022-12-27T08:07:52.361Z,1021.57
2022-12-27T08:08:52.332Z,1021.58
2022-12-27T08:09:52.346Z,1021.61
2022-12-27T08:10:52.327Z,1021.59
2022-12-27T08:11:52.331Z,1021.57
2022-12-27T08:12:52.321Z,1021.60
2022-12-27T08:13:52.308Z,1021.62
2022-12-27T08:14:52.305Z,1021.61
2022-12-27T08:15:52.327Z,1021.61
2022-12-27T08:16:52.387Z,1021.63
2022-12-27T08:17:52.295Z,1021.62
2022-12-27T08:18:52.287Z,1021.64
2022-12-27T08:19:52.299Z,1021.65
2022-12-27T08:20:52.493Z,1021.61
2022-12-27T08:21:52.272Z,1021.60
2022-12-27T08:22:52.305Z,1021.58
2022-12-27T08:23:52.290Z,1021.64
2022-12-27T08:24:52.270Z,1021.61
2022-12-27T08:25:52.251Z,1021.64
2022-12-27T08:26:52.262Z,1021.67
2022-12-27T08:27:52.260Z,1021.65
2022-12-27T08:28:52.249Z,1021.65
2022-12-27T08:29:52.251Z,1021.62
2022-12-27T08:30:52.296Z,1021.62
2022-12-27T08:31:52.248Z,1021.64
2022-12-27T08:32:52.239Z,1021.64
2022-12-27T08:33:58.064Z,1021.62
2022-12-27T08:34:52.224Z,1021.64
2022-12-27T08:35:54.073Z,1021.62
2022-12-27T08:36:56.352Z,1021.61
2022-12-27T08:37:52.215Z,1021.61
2022-12-27T08:38:52.204Z,1021.64
2022-12-27T08:39:53.135Z,1021.54
2022-12-27T08:40:52.186Z,1021.58
2022-12-27T08:41:52.179Z,1021.60
2022-12-27T08:42:52.192Z,1021.59
2022-12-27T08:43:52.179Z,1021.59
2022-12-27T08:44:52.183Z,1021.62
2022-12-27T08:45:52.207Z,1021.64
2022-12-27T08:46:52.165Z,1021.63
2022-12-27T08:47:52.207Z,1021.60
2022-12-27T08:48:52.152Z,1021.59
2022-12-27T08:49:52.161Z,1021.63
2022-12-27T08:50:52.142Z,1021.58
2022-12-27T08:51:52.143Z,1021.63
2022-12-27T08:52:52.156Z,1021.59
2022-12-27T08:53:52.138Z,1021.62
2022-12-27T08:54:52.138Z,1021.60
2022-12-27T08:55:52.109Z,1021.61
2022-12-27T08:56:52.116Z,1021.60
2022-12-27T08:57:52.106Z,1021.65
2022-12-27T08:58:52.132Z,1021.61
2022-12-27T08:59:52.092Z,1021.63
2022-12-27T09:00:52.106Z,1021.64
2022-12-27T09:01:52.223Z,1021.64
2022-12-27T09:02:52.136Z,1021.63
2022-12-27T09:03:52.098Z,1021.64
2022-12-27T09:04:52.108Z,1021.66
2022-12-27T09:05:52.066Z,1021.64
2022-12-27T09:06:52.083Z,1021.68
2022-12-27T09:07:52.068Z,1021.74
2022-12-27T09:08:52.147Z,1021.71
2022-12-27T09:09:52.071Z,1021.74
2022-12-27T09:10:52.058Z,1021.71
2022-12-27T09:11:52.051Z,1021.77
2022-12-27T09:12:52.042Z,1021.75
2022-12-27T09:13:52.076Z,1021.77
2022-12-27T09:14:52.044Z,1021.75
2022-12-27T09:15:52.055Z,1021.77
2022-12-27T09:16:52.036Z,1021.77
2022-12-27T09:17:52.023Z,1021.79
2022-12-27T09:18:52.013Z,1021.76
2022-12-27T09:19:52.008Z,1021.79
2022-12-27T09:20:52.016Z,1021.83
2022-12-27T09:21:52.014Z,1021.83
2022-12-27T09:22:52.028Z,1021.83
2022-12-27T09:23:52.015Z,1021.81
2022-12-27T09:24:52.005Z,1021.81
2022-12-27T09:25:51.993Z,1021.80
2022-12-27T09:26:51.998Z,1021.80
2022-12-27T09:27:51.983Z,1021.81
2022-12-27T09:28:51.985Z,1021.77
2022-12-27T09:29:51.954Z,1021.80
2022-12-27T09:30:51.976Z,1021.80
2022-12-27T09:31:51.943Z,1021.83
2022-12-27T09:32:51.971Z,1021.84
2022-12-27T09:33:51.954Z,1021.90
2022-12-27T09:34:51.945Z,1021.89
2022-12-27T09:35:51.940Z,1021.84
2022-12-27T09:36:51.922Z,1021.85
2022-12-27T09:37:51.933Z,1021.86
2022-12-27T09:38:51.937Z,1021.86
2022-12-27T09:39:51.907Z,1021.87
2022-12-27T09:40:51.939Z,1021.87
2022-12-27T09:42:45.118Z,1021.87
2022-12-27T09:43:06.193Z,1021.86
2022-12-27T09:43:51.906Z,1021.92
2022-12-27T09:44:51.892Z,1021.88
2022-12-27T09:45:51.881Z,1021.87
2022-12-27T09:46:51.884Z,1021.90
2022-12-27T09:47:51.873Z,1021.93
2022-12-27T09:48:51.870Z,1021.89
2022-12-27T09:49:51.880Z,1021.90
2022-12-27T09:50:51.877Z,1021.86
2022-12-27T09:51:51.865Z,1021.87
2022-12-27T09:52:51.853Z,1021.83
2022-12-27T09:53:51.841Z,1021.84
2022-12-27T09:54:51.871Z,1021.85
2022-12-27T09:55:51.840Z,1021.81
2022-12-27T09:57:19.005Z,1021.87
2022-12-27T09:57:51.829Z,1021.84
2022-12-27T09:58:51.848Z,1021.81
2022-12-27T09:59:51.852Z,1021.82
2022-12-27T10:00:51.815Z,1021.82
2022-12-27T10:01:51.942Z,1021.82
2022-12-27T10:02:51.900Z,1021.81
2022-12-27T10:03:51.818Z,1021.76
2022-12-27T10:05:56.192Z,1021.73
2022-12-27T10:06:51.807Z,1021.75
2022-12-27T10:07:51.775Z,1021.70
2022-12-27T10:08:51.791Z,1021.72
2022-12-27T10:09:51.766Z,1021.75
2022-12-27T10:10:51.773Z,1021.80
2022-12-27T10:11:51.763Z,1021.74
2022-12-27T10:12:51.800Z,1021.76
2022-12-27T10:13:51.769Z,1021.72
2022-12-27T10:14:51.755Z,1021.76
2022-12-27T10:15:51.804Z,1021.73
2022-12-27T10:16:51.753Z,1021.73
2022-12-27T10:17:53.624Z,1021.71
2022-12-27T10:18:51.753Z,1021.73
2022-12-27T10:19:51.722Z,1021.72
2022-12-27T10:20:51.750Z,1021.73
2022-12-27T10:21:51.726Z,1021.74
2022-12-27T10:22:51.726Z,1021.74
2022-12-27T10:23:51.725Z,1021.75
2022-12-27T10:24:51.721Z,1021.74
2022-12-27T10:25:51.703Z,1021.76
2022-12-27T10:26:51.697Z,1021.77
2022-12-27T10:27:51.684Z,1021.73
2022-12-27T10:28:56.867Z,1021.72
2022-12-27T10:29:51.683Z,1021.71
2022-12-27T10:30:51.675Z,1021.75
2022-12-27T10:31:51.693Z,1021.76
2022-12-27T10:32:51.679Z,1021.83
2022-12-27T10:33:51.671Z,1021.79
2022-12-27T10:34:51.671Z,1021.77
2022-12-27T10:35:51.681Z,1021.78
2022-12-27T10:36:51.675Z,1021.76
2022-12-27T10:37:51.657Z,1021.77
2022-12-27T10:38:51.661Z,1021.77
2022-12-27T10:39:51.636Z,1021.79
2022-12-27T10:40:51.642Z,1021.77
2022-12-27T10:41:51.622Z,1021.77
2022-12-27T10:42:51.632Z,1021.76
2022-12-27T10:43:51.632Z,1021.77
2022-12-27T10:44:51.646Z,1021.72
2022-12-27T10:45:51.601Z,1021.75
2022-12-27T10:46:51.701Z,1021.72
2022-12-27T10:47:51.613Z,1021.73
2022-12-27T10:49:19.633Z,1021.76
2022-12-27T10:49:51.588Z,1021.76
2022-12-27T10:50:51.596Z,1021.70
2022-12-27T10:51:51.602Z,1021.67
2022-12-27T10:52:57.301Z,1021.66
2022-12-27T10:53:51.584Z,1021.68
2022-12-27T10:54:51.577Z,1021.68
2022-12-27T10:55:51.570Z,1021.64
2022-12-27T10:56:51.568Z,1021.66
2022-12-27T10:57:51.568Z,1021.61
2022-12-27T10:58:58.106Z,1021.61
2022-12-27T10:59:51.537Z,1021.61
2022-12-27T11:00:51.656Z,1021.64
2022-12-27T11:01:51.787Z,1021.65
2022-12-27T11:02:51.615Z,1021.68
2022-12-27T11:03:51.517Z,1021.67
2022-12-27T11:04:51.522Z,1021.65
2022-12-27T11:05:51.524Z,1021.64
2022-12-27T11:06:51.664Z,1021.64
2022-12-27T11:07:51.502Z,1021.64
2022-12-27T11:08:51.514Z,1021.64
2022-12-27T11:09:51.517Z,1021.62
2022-12-27T11:10:51.511Z,1021.63
2022-12-27T11:11:51.495Z,1021.60
2022-12-27T11:12:51.482Z,1021.63
2022-12-27T11:13:51.506Z,1021.61
2022-12-27T11:14:51.479Z,1021.56
2022-12-27T11:15:55.376Z,1021.58
2022-12-27T11:16:51.489Z,1021.63
2022-12-27T11:17:51.470Z,1021.64
2022-12-27T11:18:51.467Z,1021.65
2022-12-27T11:19:51.451Z,1021.61
2022-12-27T11:20:51.454Z,1021.66
2022-12-27T11:21:51.443Z,1021.70
2022-12-27T11:22:51.448Z,1021.67
2022-12-27T11:23:51.440Z,1021.63
2022-12-27T11:24:51.443Z,1021.65
2022-12-27T11:25:51.433Z,1021.61
2022-12-27T11:26:53.923Z,1021.62
2022-12-27T11:27:51.408Z,1021.59
2022-12-27T11:28:51.409Z,1021.63
2022-12-27T11:29:51.422Z,1021.63
2022-12-27T11:30:51.417Z,1021.62
2022-12-27T11:31:51.464Z,1021.64
2022-12-27T11:32:51.467Z,1021.69
2022-12-27T11:33:51.395Z,1021.65
2022-12-27T11:34:51.385Z,1021.70
2022-12-27T11:35:51.393Z,1021.71
2022-12-27T11:36:51.380Z,1021.73
2022-12-27T11:37:51.361Z,1021.67
2022-12-27T11:38:51.378Z,1021.66
2022-12-27T11:39:51.375Z,1021.64
2022-12-27T11:40:51.359Z,1021.66
2022-12-27T11:41:51.345Z,1021.62
2022-12-27T11:42:51.349Z,1021.67
2022-12-27T11:43:51.349Z,1021.68
2022-12-27T11:44:51.354Z,1021.67
2022-12-27T11:45:51.365Z,1021.68
2022-12-27T11:46:57.018Z,1021.68
2022-12-27T11:47:51.318Z,1021.69
2022-12-27T11:48:51.421Z,1021.69
2022-12-27T11:49:51.315Z,1021.67
2022-12-27T11:50:51.323Z,1021.68
2022-12-27T11:51:51.301Z,1021.68
2022-12-27T11:52:51.304Z,1021.64
2022-12-27T11:53:56.137Z,1021.67
2022-12-27T11:54:51.295Z,1021.62
2022-12-27T11:55:51.299Z,1021.66
2022-12-27T11:56:51.282Z,1021.65
2022-12-27T11:57:51.296Z,1021.61
2022-12-27T11:58:51.284Z,1021.59
2022-12-27T11:59:51.285Z,1021.57
2022-12-27T12:00:51.260Z,1021.60
2022-12-27T12:01:51.468Z,1021.58
2022-12-27T12:02:51.404Z,1021.55
2022-12-27T12:03:51.245Z,1021.59
2022-12-27T12:04:51.269Z,1021.57
2022-12-27T12:05:51.264Z,1021.55
2022-12-27T12:06:51.250Z,1021.55